Time;durP1;ratioP1;P1;durP2;ratioP2;P2;SDS_P1;SDS_P2;PMS_P1;PMS_P2;Temp;Humidity;BMP_temperature;BMP_pressure;BME280_temperature;BME280_humidity;BME280_pressure;Samples;Min_cycle;Max_cycle;Signal;HPM_P1;HPM_P2
2022/11/17 00:01:56;;;;;;;1.10;1.00;;;20.40;44.00;;;;;;5058473;28;20450;-63
2022/11/17 00:04:27;;;;;;;1.00;0.90;;;20.40;44.00;;;;;;5060181;28;20497;-62
2022/11/17 00:06:53;;;;;;;1.30;1.20;;;20.40;44.00;;;;;;5063782;28;20220;-62
2022/11/17 00:09:19;;;;;;;1.10;1.00;;;20.40;44.00;;;;;;5063261;28;20966;-62
2022/11/17 00:14:31;;;;;;;1.20;1.10;;;20.40;44.00;;;;;;5061954;28;20266;-61
2022/11/17 00:16:57;;;;;;;1.83;0.97;;;20.40;44.00;;;;;;5063358;28;20458;-62
2022/11/17 00:22:07;;;;;;;0.90;0.80;;;20.40;44.00;;;;;;5060051;28;20519;-62
2022/11/17 00:24:33;;;;;;;1.10;1.00;;;20.40;43.90;;;;;;5040446;28;20446;-62
2022/11/17 00:27:01;;;;;;;1.27;1.17;;;20.30;43.90;;;;;;5056730;28;20228;-62
2022/11/17 00:29:58;;;;;;;1.10;1.00;;;20.40;44.00;;;;;;5063524;28;20222;-62
2022/11/17 00:35:07;;;;;;;0.93;0.90;;;20.40;43.90;;;;;;5062848;28;20506;-62
2022/11/17 00:37:36;;;;;;;1.00;1.00;;;20.30;43.90;;;;;;5064343;28;20446;-62
2022/11/17 00:40:04;;;;;;;1.33;1.23;;;20.40;43.90;;;;;;5064961;28;20221;-61
2022/11/17 00:42:30;;;;;;;1.10;1.00;;;20.40;43.90;;;;;;5044711;28;20537;-61
2022/11/17 00:44:55;;;;;;;1.03;0.93;;;20.40;43.90;;;;;;5062454;28;20904;-61
2022/11/17 00:47:21;;;;;;;1.20;1.10;;;20.40;43.90;;;;;;5061557;28;20229;-61
2022/11/17 00:49:46;;;;;;;1.77;0.90;;;20.40;43.90;;;;;;5065232;28;20225;-62
2022/11/17 00:52:12;;;;;;;1.20;1.10;;;20.40;43.90;;;;;;5064226;28;20225;-62
2022/11/17 00:54:37;;;;;;;1.00;0.97;;;20.40;43.90;;;;;;5059160;28;20217;-62
2022/11/17 00:57:03;;;;;;;0.90;0.80;;;20.40;43.90;;;;;;5065361;28;20217;-62
2022/11/17 00:59:28;;;;;;;1.10;1.00;;;20.40;43.90;;;;;;5062502;28;20231;-62
2022/11/17 01:01:54;;;;;;;1.30;1.07;;;20.40;43.90;;;;;;5065434;28;20644;-61
2022/11/17 01:04:20;;;;;;;1.13;1.03;;;20.40;43.80;;;;;;5060148;28;20217;-61
2022/11/17 01:06:47;;;;;;;1.00;0.90;;;20.40;43.80;;;;;;5063146;28;20738;-61
2022/11/17 01:09:20;;;;;;;1.10;1.00;;;20.40;43.80;;;;;;5064965;28;20237;-62
2022/11/17 01:11:47;;;;;;;2.93;1.10;;;20.40;43.90;;;;;;5064516;28;20493;-62
2022/11/17 01:14:18;;;;;;;1.20;1.10;;;20.40;43.90;;;;;;5059549;28;20537;-62
2022/11/17 01:16:44;;;;;;;1.40;1.00;;;20.40;43.80;;;;;;5063803;28;20504;-62
2022/11/17 01:19:12;;;;;;;0.80;0.80;;;20.40;43.80;;;;;;5064522;28;20458;-62
2022/11/17 01:21:37;;;;;;;1.17;1.07;;;20.40;43.80;;;;;;5063777;28;20491;-62
2022/11/17 01:24:03;;;;;;;1.30;1.07;;;20.40;43.80;;;;;;5061848;28;21044;-62
2022/11/17 01:26:31;;;;;;;1.57;1.00;;;20.40;43.80;;;;;;5063109;28;20576;-62
2022/11/17 01:28:58;;;;;;;2.83;0.80;;;20.40;43.80;;;;;;5057561;28;20224;-62
2022/11/17 01:31:30;;;;;;;1.10;1.00;;;20.40;43.80;;;;;;5064258;28;20429;-62
2022/11/17 01:33:55;;;;;;;2.40;1.00;;;20.40;43.80;;;;;;5062440;28;20457;-60
2022/11/17 01:36:22;;;;;;;1.90;0.87;;;20.40;43.80;;;;;;5062459;28;20455;-60
2022/11/17 01:38:48;;;;;;;1.20;1.10;;;20.30;43.70;;;;;;5060969;28;20368;-60
2022/11/17 01:41:17;;;;;;;1.00;1.00;;;20.40;43.80;;;;;;5061857;28;20976;-60
2022/11/17 01:43:51;;;;;;;1.20;1.10;;;20.40;43.80;;;;;;5061575;28;20229;-60
2022/11/17 01:46:36;;;;;;;1.20;1.10;;;20.40;43.80;;;;;;5058410;28;20569;-60
2022/11/17 01:49:06;;;;;;;0.90;0.90;;;20.40;43.80;;;;;;5057663;28;20450;-60
2022/11/17 01:51:35;;;;;;;1.23;1.10;;;20.40;43.70;;;;;;5058865;28;20490;-60
2022/11/17 01:54:01;;;;;;;1.00;0.90;;;20.40;43.70;;;;;;5061291;28;20450;-60
2022/11/17 01:56:34;;;;;;;1.30;1.20;;;20.30;43.60;;;;;;5061295;28;20442;-60
2022/11/17 01:59:15;;;;;;;0.90;0.90;;;20.40;43.70;;;;;;5061193;28;20442;-60
2022/11/17 02:01:54;;;;;;;1.30;0.93;;;20.30;43.50;;;;;;5061051;28;20465;-60
2022/11/17 02:04:30;;;;;;;1.30;1.20;;;20.40;43.70;;;;;;5059118;28;20450;-60
2022/11/17 02:07:28;;;;;;;0.97;0.97;;;20.30;43.60;;;;;;5061351;28;21407;-60
2022/11/17 02:09:55;;;;;;;1.20;1.00;;;20.40;43.70;;;;;;5052953;28;21781;-60
2022/11/17 02:12:22;;;;;;;1.17;1.07;;;20.30;43.60;;;;;;5057986;28;20461;-60
2022/11/17 02:14:51;;;;;;;1.20;1.10;;;20.30;43.60;;;;;;5058768;28;20445;-60
2022/11/17 02:17:18;;;;;;;1.13;1.03;;;20.30;43.70;;;;;;5058227;28;20970;-60
2022/11/17 02:19:46;;;;;;;1.20;1.10;;;20.30;43.70;;;;;;5056237;28;20481;-60
2022/11/17 02:22:18;;;;;;;1.00;0.90;;;20.30;43.70;;;;;;5059287;28;20446;-60
2022/11/17 02:25:10;;;;;;;1.30;1.10;;;20.30;43.70;;;;;;5059444;28;20469;-60
2022/11/17 02:28:05;;;;;;;1.30;1.00;;;20.30;43.70;;;;;;5054418;28;21321;-60
2022/11/17 02:31:08;;;;;;;1.97;0.83;;;20.30;43.70;;;;;;5056758;28;20450;-60
2022/11/17 02:33:52;;;;;;;1.90;1.20;;;20.30;43.70;;;;;;5009519;28;20460;-61
2022/11/17 02:36:31;;;;;;;1.10;1.00;;;20.30;43.70;;;;;;5055703;28;20500;-60
2022/11/17 02:39:18;;;;;;;1.10;1.00;;;20.30;43.80;;;;;;5057546;28;20995;-60
2022/11/17 02:41:59;;;;;;;1.17;1.07;;;20.30;43.80;;;;;;5058019;28;20826;-60
2022/11/17 02:44:30;;;;;;;2.10;1.10;;;20.30;43.70;;;;;;5056321;28;20457;-60
2022/11/17 02:47:05;;;;;;;1.30;1.10;;;20.30;43.80;;;;;;5056790;28;20462;-59
2022/11/17 02:49:43;;;;;;;1.20;1.10;;;20.30;43.80;;;;;;5056962;28;20457;-60
2022/11/17 02:52:09;;;;;;;1.07;0.97;;;20.30;43.70;;;;;;5055008;28;20558;-60
2022/11/17 02:54:34;;;;;;;1.83;1.20;;;20.30;43.80;;;;;;5057186;28;20459;-61
2022/11/17 02:57:00;;;;;;;0.97;0.90;;;20.30;43.70;;;;;;5060301;28;20537;-60
2022/11/17 02:59:41;;;;;;;1.40;1.00;;;20.30;43.80;;;;;;5057651;28;20213;-60
2022/11/17 03:02:25;;;;;;;1.00;0.90;;;20.30;43.70;;;;;;5060185;28;20232;-61
2022/11/17 03:05:04;;;;;;;1.23;1.00;;;20.30;43.80;;;;;;5056068;28;20505;-62
2022/11/17 03:07:41;;;;;;;1.20;1.10;;;20.30;43.70;;;;;;5056685;28;20927;-62
2022/11/17 03:10:15;;;;;;;1.30;1.10;;;20.30;44.50;;;;;;5060468;28;20436;-63
2022/11/17 03:13:11;;;;;;;1.20;1.10;;;20.30;43.70;;;;;;5057707;28;20479;-63
2022/11/17 03:15:54;;;;;;;1.77;1.20;;;20.30;43.60;;;;;;5056491;28;21038;-63
2022/11/17 03:18:50;;;;;;;1.10;1.00;;;20.30;43.70;;;;;;5058010;28;20481;-63
2022/11/17 03:21:20;;;;;;;1.00;0.90;;;20.30;43.70;;;;;;5060082;28;21037;-62
2022/11/17 03:23:53;;;;;;;1.10;1.00;;;20.30;43.70;;;;;;5058258;28;20474;-62
2022/11/17 03:26:31;;;;;;;1.10;1.00;;;20.30;43.70;;;;;;5058287;28;20867;-63
2022/11/17 03:28:57;;;;;;;0.90;0.77;;;20.30;43.70;;;;;;5058672;28;20442;-63
2022/11/17 03:31:24;;;;;;;1.20;1.10;;;20.30;43.70;;;;;;5053633;28;20578;-62
2022/11/17 03:33:51;;;;;;;1.10;1.00;;;20.30;43.80;;;;;;5059105;28;20595;-62
2022/11/17 03:36:22;;;;;;;1.10;1.00;;;20.30;43.80;;;;;;5054884;28;20907;-62
2022/11/17 03:38:59;;;;;;;0.87;0.80;;;20.30;43.80;;;;;;5053618;28;21013;-62
2022/11/17 03:41:28;;;;;;;1.10;1.00;;;20.30;43.80;;;;;;5057420;28;20453;-62
2022/11/17 03:43:57;;;;;;;0.80;0.80;;;20.30;43.80;;;;;;5057938;28;20437;-62
2022/11/17 03:46:25;;;;;;;1.10;0.90;;;20.30;43.80;;;;;;5061001;28;20974;-62
2022/11/17 03:48:57;;;;;;;1.10;1.00;;;20.30;43.80;;;;;;5057229;28;20448;-62
2022/11/17 03:51:27;;;;;;;1.40;1.30;;;20.30;44.10;;;;;;5057875;28;20538;-63
2022/11/17 03:53:53;;;;;;;0.80;0.77;;;20.30;43.80;;;;;;5060181;28;21159;-63
2022/11/17 03:56:41;;;;;;;1.13;0.90;;;20.30;43.60;;;;;;5060809;28;20454;-61
2022/11/17 03:59:16;;;;;;;1.00;0.90;;;20.30;44.50;;;;;;5061029;28;20456;-62
2022/11/17 04:01:42;;;;;;;1.83;1.10;;;20.30;43.60;;;;;;5058101;28;20946;-62
2022/11/17 04:04:17;;;;;;;1.30;1.20;;;20.30;43.70;;;;;;5060146;28;20442;-62
2022/11/17 04:06:42;;;;;;;1.00;0.90;;;20.30;43.70;;;;;;5056876;28;20219;-62
2022/11/17 04:09:08;;;;;;;1.00;0.90;;;20.30;43.70;;;;;;5059470;28;21270;-63
2022/11/17 04:17:02;;;;;;;0.80;0.80;;;20.30;43.70;;;;;;5060582;28;20468;-62
2022/11/17 04:19:27;;;;;;;0.90;0.80;;;20.30;43.70;;;;;;5060543;28;20462;-62
2022/11/17 04:21:53;;;;;;;1.00;0.90;;;20.30;43.70;;;;;;5061897;28;20647;-62
2022/11/17 04:24:18;;;;;;;0.77;0.77;;;20.30;43.70;;;;;;5060329;28;20229;-62
2022/11/17 04:29:29;;;;;;;1.00;0.90;;;20.30;43.80;;;;;;5058589;28;20550;-63
2022/11/17 04:31:55;;;;;;;2.90;1.17;;;20.30;44.50;;;;;;5061713;28;20457;-63
2022/11/17 04:34:20;;;;;;;0.87;0.80;;;20.30;43.80;;;;;;5060417;28;20292;-63
2022/11/17 04:36:46;;;;;;;1.00;0.90;;;20.30;43.80;;;;;;5059916;28;20304;-63
2022/11/17 04:39:13;;;;;;;1.30;1.20;;;20.30;43.80;;;;;;5056104;28;20217;-62
2022/11/17 04:42:01;;;;;;;0.90;0.80;;;20.30;43.70;;;;;;5061112;28;20698;-63
2022/11/17 04:44:29;;;;;;;1.27;0.90;;;20.30;43.80;;;;;;5059317;28;20465;-63
2022/11/17 04:46:56;;;;;;;0.93;0.90;;;20.30;43.80;;;;;;5061446;28;20815;-63
2022/11/17 04:49:23;;;;;;;1.40;1.07;;;20.30;43.80;;;;;;5057810;28;20849;-62
2022/11/17 04:51:49;;;;;;;0.80;0.80;;;20.30;43.80;;;;;;5061045;28;20469;-63
2022/11/17 04:54:17;;;;;;;0.90;0.80;;;20.30;43.80;;;;;;5064452;28;20435;-62
2022/11/17 04:56:43;;;;;;;1.00;0.80;;;20.30;43.80;;;;;;5063221;28;20457;-62
2022/11/17 04:59:09;;;;;;;0.80;0.70;;;20.30;43.80;;;;;;5063790;28;20434;-62
2022/11/17 05:01:35;;;;;;;1.00;0.87;;;20.30;43.80;;;;;;5062270;28;20442;-63
2022/11/17 05:04:06;;;;;;;0.70;0.70;;;20.30;43.80;;;;;;5064601;28;20237;-62
2022/11/17 05:06:31;;;;;;;0.73;0.70;;;20.30;43.70;;;;;;5065314;28;20437;-62
2022/11/17 05:08:58;;;;;;;0.93;0.90;;;20.30;43.70;;;;;;5063139;28;20811;-62
2022/11/17 05:14:11;;;;;;;0.83;0.80;;;20.30;43.70;;;;;;5064103;28;20448;-62
2022/11/17 05:19:23;;;;;;;1.30;1.20;;;20.30;43.70;;;;;;5062678;28;20822;-63
2022/11/17 05:21:49;;;;;;;0.70;0.70;;;20.40;43.80;;;;;;5062746;28;20425;-63
2022/11/17 05:24:16;;;;;;;0.70;0.60;;;20.40;43.80;;;;;;5064082;28;20454;-64
2022/11/17 05:26:44;;;;;;;1.20;0.70;;;20.40;43.80;;;;;;5063354;28;20217;-63
2022/11/17 05:29:11;;;;;;;0.80;0.70;;;20.40;43.70;;;;;;5061358;28;20425;-63
2022/11/17 05:31:37;;;;;;;0.97;0.77;;;20.40;43.70;;;;;;5063411;28;20515;-63
2022/11/17 05:34:05;;;;;;;0.67;0.60;;;20.40;43.60;;;;;;5065226;28;20849;-62
2022/11/17 05:36:30;;;;;;;0.90;0.80;;;20.40;43.60;;;;;;5062487;28;20218;-62
2022/11/17 05:38:56;;;;;;;1.40;0.60;;;20.40;43.60;;;;;;5062243;28;20533;-61
2022/11/17 05:41:22;;;;;;;0.90;0.80;;;20.50;43.70;;;;;;5058603;28;20224;-62
2022/11/17 05:43:49;;;;;;;0.83;0.83;;;20.50;43.70;;;;;;5060022;28;20221;-62
2022/11/17 05:46:16;;;;;;;0.97;0.77;;;20.50;43.60;;;;;;5061772;28;20457;-62
2022/11/17 05:48:43;;;;;;;1.40;0.70;;;20.40;43.60;;;;;;5053495;28;20464;-62
2022/11/17 05:51:09;;;;;;;0.90;0.70;;;20.50;43.70;;;;;;5057525;28;20478;-61
2022/11/17 05:53:34;;;;;;;0.83;0.83;;;20.50;43.70;;;;;;5059514;28;20529;-63
2022/11/17 05:56:17;;;;;;;0.80;0.80;;;20.50;43.70;;;;;;5057434;28;20290;-62
2022/11/17 05:58:46;;;;;;;1.00;0.80;;;20.50;43.70;;;;;;5059573;28;20224;-62
2022/11/17 06:01:14;;;;;;;0.80;0.70;;;20.50;43.70;;;;;;5059133;28;20458;-62
2022/11/17 06:03:49;;;;;;;0.80;0.70;;;20.50;43.80;;;;;;5043885;28;20458;-62
2022/11/17 06:06:14;;;;;;;0.70;0.70;;;20.50;43.70;;;;;;5058104;28;20448;-62
2022/11/17 06:08:41;;;;;;;1.73;0.93;;;20.50;43.80;;;;;;5052706;28;20508;-62
2022/11/17 06:11:06;;;;;;;0.80;0.80;;;20.50;44.50;;;;;;5057116;28;20229;-62
2022/11/17 06:13:32;;;;;;;0.80;0.80;;;20.40;43.70;;;;;;5059112;28;20454;-62
2022/11/17 06:16:02;;;;;;;0.90;0.70;;;20.40;43.70;;;;;;5054159;28;20221;-62
2022/11/17 06:18:37;;;;;;;1.00;0.87;;;20.40;43.60;;;;;;5059024;28;20236;-61
2022/11/17 06:21:04;;;;;;;0.90;0.70;;;20.40;43.60;;;;;;5057485;28;20503;-62
2022/11/17 06:23:32;;;;;;;1.30;0.73;;;20.40;43.60;;;;;;5057492;28;21192;-63
2022/11/17 06:26:01;;;;;;;0.90;0.73;;;20.40;43.60;;;;;;5054953;28;20439;-65
2022/11/17 06:28:29;;;;;;;0.80;0.70;;;20.40;43.70;;;;;;5059089;28;20465;-63
2022/11/17 06:30:55;;;;;;;1.93;0.80;;;20.50;43.80;;;;;;5054199;28;20450;-62
2022/11/17 06:33:21;;;;;;;0.70;0.67;;;20.40;43.60;;;;;;5052694;28;20474;-62
2022/11/17 06:35:48;;;;;;;0.80;0.73;;;20.40;43.70;;;;;;5053809;28;20513;-62
2022/11/17 06:38:13;;;;;;;1.20;1.00;;;20.40;43.70;;;;;;5055254;28;20312;-62
2022/11/17 06:40:39;;;;;;;1.53;0.70;;;20.40;43.70;;;;;;5055146;28;20423;-62
2022/11/17 06:43:08;;;;;;;0.90;0.77;;;20.40;43.70;;;;;;5057019;28;20212;-64
2022/11/17 06:45:35;;;;;;;0.80;0.70;;;20.40;43.70;;;;;;5060191;28;20574;-62
2022/11/17 06:48:01;;;;;;;1.30;0.90;;;20.40;43.70;;;;;;5057846;28;20920;-63
2022/11/17 06:50:27;;;;;;;1.00;0.80;;;20.40;43.70;;;;;;5059345;28;20421;-63
2022/11/17 06:53:04;;;;;;;1.27;0.90;;;20.40;43.70;;;;;;5060547;28;20241;-63
2022/11/17 06:55:30;;;;;;;1.10;0.83;;;20.40;43.60;;;;;;5061655;28;20236;-63
2022/11/17 06:58:07;;;;;;;1.00;0.83;;;20.40;43.70;;;;;;5060552;28;20454;-63
2022/11/17 07:00:34;;;;;;;0.90;0.80;;;20.40;43.70;;;;;;5062524;28;20225;-63
2022/11/17 07:03:08;;;;;;;1.10;0.90;;;20.40;43.70;;;;;;5062509;28;20884;-63
2022/11/17 07:05:35;;;;;;;1.13;0.83;;;20.40;43.70;;;;;;5057141;28;20458;-63
2022/11/17 07:08:04;;;;;;;1.00;0.80;;;20.40;43.70;;;;;;5060437;28;20968;-63
2022/11/17 07:10:31;;;;;;;2.30;1.10;;;20.40;43.70;;;;;;5061629;28;20442;-63
2022/11/17 07:12:57;;;;;;;3.53;1.00;;;20.40;43.70;;;;;;5060112;28;20984;-63
2022/11/17 07:15:23;;;;;;;1.40;0.83;;;20.40;43.70;;;;;;5060238;28;20425;-62
2022/11/17 07:17:48;;;;;;;1.20;0.93;;;20.40;43.70;;;;;;5060773;28;20225;-63
2022/11/17 07:20:14;;;;;;;0.90;0.80;;;20.40;43.80;;;;;;5062226;28;20228;-63
2022/11/17 07:22:40;;;;;;;1.63;0.90;;;20.40;43.70;;;;;;5061834;28;20243;-63
2022/11/17 07:25:06;;;;;;;0.83;0.80;;;20.40;43.80;;;;;;5061288;28;20515;-63
2022/11/17 07:27:32;;;;;;;0.80;0.73;;;20.40;43.80;;;;;;5061959;28;20738;-63
2022/11/17 07:29:58;;;;;;;0.80;0.80;;;20.40;43.70;;;;;;5061828;28;20454;-63
2022/11/17 07:32:23;;;;;;;1.10;0.83;;;20.40;43.80;;;;;;5059756;28;20590;-62
2022/11/17 07:34:49;;;;;;;0.90;0.80;;;20.40;43.70;;;;;;5061569;28;20325;-63
2022/11/17 07:37:15;;;;;;;1.00;0.90;;;20.40;43.70;;;;;;5061927;28;20739;-63
2022/11/17 07:39:41;;;;;;;0.90;0.70;;;20.40;43.70;;;;;;5057600;28;20466;-63
2022/11/17 07:42:06;;;;;;;1.23;0.80;;;20.40;43.80;;;;;;5055324;28;20316;-63
2022/11/17 07:44:33;;;;;;;2.20;0.83;;;20.40;43.80;;;;;;5061028;28;20275;-63
2022/11/17 07:46:58;;;;;;;1.77;0.77;;;20.40;43.80;;;;;;5060646;28;20236;-63
2022/11/17 07:49:25;;;;;;;0.80;0.80;;;20.40;43.80;;;;;;5047890;28;21008;-63
2022/11/17 07:51:51;;;;;;;1.40;0.70;;;20.40;43.80;;;;;;5061249;28;20225;-63
2022/11/17 07:54:17;;;;;;;1.27;1.00;;;20.40;43.80;;;;;;5059571;28;20458;-63
2022/11/17 07:56:42;;;;;;;1.20;0.70;;;20.40;43.80;;;;;;5040301;28;20213;-63
2022/11/17 07:59:08;;;;;;;1.57;0.80;;;20.40;43.80;;;;;;5056736;28;20221;-63
2022/11/17 08:01:33;;;;;;;1.20;0.70;;;20.40;43.80;;;;;;5058741;28;20271;-63
2022/11/17 08:03:59;;;;;;;0.90;0.80;;;20.40;43.90;;;;;;5058000;28;20222;-63
2022/11/17 08:06:25;;;;;;;0.90;0.70;;;20.40;43.80;;;;;;5059886;28;20225;-62
2022/11/17 08:08:50;;;;;;;0.80;0.80;;;20.40;44.70;;;;;;5061379;28;20307;-63
2022/11/17 08:11:18;;;;;;;1.17;0.80;;;20.40;43.80;;;;;;5059038;28;20213;-63
2022/11/17 08:13:44;;;;;;;1.40;0.80;;;20.40;43.70;;;;;;5057834;28;20703;-63
2022/11/17 08:16:11;;;;;;;0.70;0.70;;;20.40;43.80;;;;;;5058174;28;20466;-63
2022/11/17 08:18:37;;;;;;;0.90;0.80;;;20.40;43.90;;;;;;5057219;28;20242;-63
2022/11/17 08:21:07;;;;;;;3.03;0.70;;;20.40;43.80;;;;;;5055683;28;20467;-63
2022/11/17 08:23:34;;;;;;;1.00;0.70;;;20.40;43.90;;;;;;5060860;28;20923;-63
2022/11/17 08:26:00;;;;;;;1.87;0.90;;;20.40;43.80;;;;;;5059774;28;20474;-63
2022/11/17 08:28:26;;;;;;;1.17;1.00;;;20.40;44.60;;;;;;5063496;28;20434;-63
2022/11/17 08:30:52;;;;;;;1.77;0.80;;;20.40;43.90;;;;;;5062180;28;21736;-63
2022/11/17 08:33:17;;;;;;;0.83;0.77;;;20.40;43.90;;;;;;5063093;28;20282;-63
2022/11/17 08:35:43;;;;;;;1.17;0.60;;;20.40;43.90;;;;;;5064578;28;20335;-63
2022/11/17 08:38:10;;;;;;;1.00;0.90;;;20.40;43.90;;;;;;5062226;28;20443;-63
2022/11/17 08:40:37;;;;;;;0.80;0.77;;;20.40;43.90;;;;;;5064199;28;20218;-62
2022/11/17 08:43:03;;;;;;;0.90;0.70;;;20.40;43.90;;;;;;5063672;28;20455;-62
2022/11/17 08:45:28;;;;;;;1.80;0.77;;;20.30;43.80;;;;;;5062842;28;20961;-63
2022/11/17 08:47:55;;;;;;;1.20;0.83;;;20.30;43.80;;;;;;5062683;28;20379;-63
2022/11/17 08:50:21;;;;;;;1.30;0.80;;;20.40;43.90;;;;;;5062964;28;20236;-62
2022/11/17 08:52:47;;;;;;;1.60;0.80;;;20.30;43.80;;;;;;5060676;28;20470;-63
2022/11/17 08:55:13;;;;;;;0.80;0.60;;;20.40;43.90;;;;;;5063757;28;20213;-63
2022/11/17 08:57:38;;;;;;;1.00;0.70;;;20.30;43.80;;;;;;5062904;28;20465;-62
2022/11/17 09:00:05;;;;;;;0.87;0.80;;;20.30;43.80;;;;;;5065052;28;20507;-63
2022/11/17 09:02:31;;;;;;;0.70;0.67;;;20.30;44.00;;;;;;5064525;28;20217;-62
2022/11/17 09:04:56;;;;;;;1.30;0.80;;;20.30;43.80;;;;;;5064048;28;20480;-63
2022/11/17 09:07:22;;;;;;;1.43;0.70;;;20.30;43.80;;;;;;5063624;28;20225;-62
2022/11/17 09:09:47;;;;;;;0.90;0.80;;;20.30;43.80;;;;;;5062513;28;20221;-62
2022/11/17 09:12:14;;;;;;;2.40;0.80;;;20.30;43.80;;;;;;5061311;28;20237;-63
2022/11/17 09:14:39;;;;;;;0.90;0.73;;;20.30;43.80;;;;;;5064251;28;20267;-62
2022/11/17 09:17:05;;;;;;;1.03;0.70;;;20.30;43.80;;;;;;5064518;28;20486;-62
2022/11/17 09:19:31;;;;;;;0.87;0.80;;;20.30;43.80;;;;;;5062814;28;20241;-62
2022/11/17 09:21:56;;;;;;;1.10;0.80;;;20.30;43.80;;;;;;5065809;28;20559;-62
2022/11/17 09:24:22;;;;;;;1.50;0.77;;;20.30;43.80;;;;;;5062552;28;20279;-63
2022/11/17 09:26:48;;;;;;;0.80;0.70;;;20.30;43.80;;;;;;5062978;28;20226;-63
2022/11/17 09:29:13;;;;;;;0.90;0.70;;;20.30;43.80;;;;;;5064184;28;20455;-62
2022/11/17 09:31:39;;;;;;;0.80;0.70;;;20.30;43.80;;;;;;5062982;28;20233;-63
2022/11/17 09:34:05;;;;;;;0.83;0.60;;;20.30;43.90;;;;;;5063010;28;20218;-63
2022/11/17 09:36:30;;;;;;;2.10;0.80;;;20.30;43.90;;;;;;5064519;28;20229;-62
2022/11/17 09:38:56;;;;;;;0.80;0.80;;;20.30;43.80;;;;;;5063225;28;20317;-63
2022/11/17 09:41:37;;;;;;;1.00;0.60;;;20.30;43.80;;;;;;5063406;28;20206;-63
2022/11/17 09:44:24;;;;;;;0.80;0.77;;;20.30;43.80;;;;;;5063402;28;20313;-63
2022/11/17 09:47:06;;;;;;;1.07;0.80;;;20.30;43.90;;;;;;5060080;28;20444;-63
2022/11/17 09:49:53;;;;;;;0.63;0.60;;;20.30;43.80;;;;;;5064411;28;20449;-63
2022/11/17 09:52:38;;;;;;;1.40;0.70;;;20.30;43.80;;;;;;5062647;28;20492;-62
2022/11/17 09:55:22;;;;;;;0.77;0.70;;;20.30;43.80;;;;;;5064663;28;20512;-63
2022/11/17 09:57:56;;;;;;;0.90;0.70;;;20.30;43.80;;;;;;5062785;28;20458;-63
2022/11/17 10:00:23;;;;;;;0.60;0.60;;;20.30;43.80;;;;;;5059116;28;20449;-63
2022/11/17 10:02:50;;;;;;;0.70;0.63;;;20.30;43.80;;;;;;5064492;28;20454;-63
2022/11/17 10:05:26;;;;;;;0.60;0.50;;;20.30;43.80;;;;;;5064930;28;21032;-63
2022/11/17 10:07:55;;;;;;;0.80;0.70;;;20.30;43.80;;;;;;5059021;28;20443;-63
2022/11/17 10:10:32;;;;;;;1.13;0.70;;;20.30;43.80;;;;;;5057658;28;20448;-63
2022/11/17 10:12:59;;;;;;;0.70;0.60;;;20.30;43.80;;;;;;5057092;28;20436;-63
2022/11/17 10:15:36;;;;;;;0.70;0.60;;;20.30;43.80;;;;;;5061076;28;20445;-63
2022/11/17 10:18:02;;;;;;;0.80;0.60;;;20.30;43.80;;;;;;5059203;28;20466;-63
2022/11/17 10:20:27;;;;;;;0.83;0.70;;;20.30;43.80;;;;;;5060352;28;20442;-63
2022/11/17 10:22:54;;;;;;;0.80;0.67;;;20.30;43.80;;;;;;5060028;28;20225;-63
2022/11/17 10:25:22;;;;;;;0.87;0.80;;;20.30;43.80;;;;;;5058378;28;20228;-63
2022/11/17 10:27:52;;;;;;;0.97;0.60;;;20.30;43.80;;;;;;5063512;28;20459;-62
2022/11/17 10:30:18;;;;;;;0.90;0.80;;;20.30;43.80;;;;;;5063692;28;20478;-63
2022/11/17 10:32:55;;;;;;;1.40;0.60;;;20.30;43.80;;;;;;5063909;28;20437;-62
2022/11/17 10:35:25;;;;;;;0.73;0.70;;;20.30;43.80;;;;;;5063003;28;20225;-62
2022/11/17 10:37:57;;;;;;;1.40;0.70;;;20.30;43.80;;;;;;5061132;28;20469;-63
2022/11/17 10:40:37;;;;;;;0.70;0.70;;;20.30;43.80;;;;;;5063175;28;20505;-62
2022/11/17 10:43:20;;;;;;;0.97;0.60;;;20.30;43.80;;;;;;5063839;28;20508;-63
2022/11/17 10:45:58;;;;;;;0.60;0.50;;;20.30;43.70;;;;;;5062554;28;20454;-62
2022/11/17 10:48:32;;;;;;;0.83;0.83;;;20.30;43.70;;;;;;5062412;28;20518;-63
2022/11/17 10:51:08;;;;;;;1.00;0.60;;;20.30;43.80;;;;;;5058835;28;20925;-62
2022/11/17 10:53:35;;;;;;;0.93;0.70;;;20.30;43.70;;;;;;5061914;28;20469;-63
2022/11/17 10:56:11;;;;;;;1.43;0.60;;;20.30;43.80;;;;;;5057126;28;20442;-63
2022/11/17 10:58:56;;;;;;;0.77;0.63;;;20.30;43.80;;;;;;5057273;28;20799;-63
2022/11/17 11:01:33;;;;;;;0.80;0.80;;;20.30;43.70;;;;;;5057377;28;20494;-63
2022/11/17 11:04:00;;;;;;;0.97;0.70;;;20.30;43.80;;;;;;5062297;28;20509;-64
2022/11/17 11:06:28;;;;;;;0.90;0.70;;;20.30;43.80;;;;;;5058565;28;20450;-64
2022/11/17 11:09:14;;;;;;;0.77;0.60;;;20.30;43.70;;;;;;5063002;28;20456;-63
2022/11/17 11:11:50;;;;;;;0.70;0.60;;;20.30;43.70;;;;;;5061703;28;20494;-63
2022/11/17 11:14:18;;;;;;;0.67;0.60;;;20.30;43.70;;;;;;5061379;28;20468;-63
2022/11/17 11:16:49;;;;;;;0.70;0.70;;;20.30;43.70;;;;;;5060077;28;20447;-62
2022/11/17 11:19:16;;;;;;;0.60;0.50;;;20.30;43.70;;;;;;5059015;28;20573;-63
2022/11/17 11:22:01;;;;;;;0.70;0.50;;;20.30;43.70;;;;;;5057374;28;20461;-63
2022/11/17 11:24:51;;;;;;;0.70;0.60;;;20.30;43.70;;;;;;5054112;28;20481;-63
2022/11/17 11:27:33;;;;;;;0.80;0.70;;;20.30;43.70;;;;;;5057040;28;20515;-63
2022/11/17 11:30:01;;;;;;;0.80;0.50;;;20.30;43.70;;;;;;5054236;28;20470;-63
2022/11/17 11:32:34;;;;;;;1.10;0.70;;;20.30;43.70;;;;;;5059111;28;20458;-63
2022/11/17 11:35:35;;;;;;;0.60;0.50;;;20.30;43.70;;;;;;5058320;28;20446;-63
2022/11/17 11:38:29;;;;;;;0.60;0.50;;;20.30;43.60;;;;;;5061989;28;20450;-63
2022/11/17 11:41:24;;;;;;;0.70;0.60;;;20.30;43.70;;;;;;5060503;28;20458;-63
2022/11/17 11:43:49;;;;;;;0.90;0.60;;;20.30;43.70;;;;;;5042462;28;20811;-63
2022/11/17 11:46:22;;;;;;;0.80;0.60;;;20.30;43.70;;;;;;5058801;28;20457;-63
2022/11/17 11:48:52;;;;;;;1.03;0.70;;;20.30;43.70;;;;;;5059050;28;20217;-63
2022/11/17 11:51:23;;;;;;;5.73;0.90;;;20.30;43.70;;;;;;5059323;28;20961;-63
2022/11/17 11:54:00;;;;;;;0.70;0.63;;;20.30;43.70;;;;;;5059952;28;20985;-63
2022/11/17 11:56:44;;;;;;;0.80;0.60;;;20.30;43.70;;;;;;5058485;28;20466;-63
2022/11/17 11:59:16;;;;;;;0.70;0.60;;;20.30;43.60;;;;;;5058234;28;20869;-63
2022/11/17 12:02:09;;;;;;;0.70;0.67;;;20.30;43.70;;;;;;5059722;28;20930;-63
2022/11/17 12:04:54;;;;;;;0.70;0.60;;;20.30;43.60;;;;;;5060818;28;20472;-64
2022/11/17 12:07:29;;;;;;;0.73;0.60;;;20.30;43.60;;;;;;5061372;28;20447;-63
2022/11/17 12:10:10;;;;;;;0.60;0.50;;;20.30;43.60;;;;;;5059339;28;20446;-63
2022/11/17 12:12:38;;;;;;;0.70;0.50;;;20.30;43.60;;;;;;5059225;28;20569;-63
2022/11/17 12:15:07;;;;;;;0.70;0.60;;;20.30;43.60;;;;;;5061005;28;20500;-63
2022/11/17 12:17:33;;;;;;;1.00;0.60;;;20.30;43.60;;;;;;5058962;28;20438;-63
2022/11/17 12:20:04;;;;;;;0.80;0.60;;;20.30;43.60;;;;;;5058921;28;20454;-62
2022/11/17 12:22:32;;;;;;;1.00;0.73;;;20.30;43.60;;;;;;5057700;28;20443;-63
2022/11/17 12:25:18;;;;;;;0.80;0.53;;;20.30;43.50;;;;;;5060530;28;20473;-63
2022/11/17 12:27:48;;;;;;;0.70;0.50;;;20.30;43.60;;;;;;5059636;28;20558;-63
2022/11/17 12:30:29;;;;;;;0.70;0.70;;;20.30;43.60;;;;;;5059037;28;20473;-63
2022/11/17 12:32:57;;;;;;;0.67;0.53;;;20.30;43.50;;;;;;5056837;28;20844;-63
2022/11/17 12:35:30;;;;;;;1.00;0.70;;;20.30;43.60;;;;;;5061270;28;20457;-63
2022/11/17 12:38:15;;;;;;;0.77;0.60;;;20.30;43.60;;;;;;5059063;28;20463;-63
2022/11/17 12:40:48;;;;;;;1.70;0.50;;;20.30;43.50;;;;;;5056481;28;20512;-63
2022/11/17 12:43:14;;;;;;;0.90;0.47;;;20.30;43.50;;;;;;5057626;28;20424;-63
2022/11/17 12:45:51;;;;;;;0.60;0.60;;;20.30;43.50;;;;;;5059669;28;20477;-62
2022/11/17 12:48:22;;;;;;;0.80;0.60;;;20.30;43.50;;;;;;5058712;28;20221;-63
2022/11/17 12:50:50;;;;;;;0.60;0.50;;;20.30;43.50;;;;;;5060997;28;20450;-63
2022/11/17 12:53:28;;;;;;;1.10;0.80;;;20.30;43.50;;;;;;5057467;28;20501;-63
2022/11/17 12:56:18;;;;;;;0.90;0.70;;;20.30;43.50;;;;;;5059439;28;20462;-63
2022/11/17 12:58:50;;;;;;;0.87;0.87;;;20.30;43.50;;;;;;5058280;28;21430;-63
2022/11/17 13:01:23;;;;;;;1.10;0.70;;;20.30;43.50;;;;;;5058902;28;20595;-63
2022/11/17 13:03:58;;;;;;;0.80;0.70;;;20.30;43.50;;;;;;5059727;28;20450;-62
2022/11/17 13:06:23;;;;;;;1.43;1.00;;;20.30;43.50;;;;;;5057917;28;21350;-63
2022/11/17 13:09:10;;;;;;;0.70;0.60;;;20.30;43.50;;;;;;5059077;28;20462;-63
2022/11/17 13:11:35;;;;;;;0.60;0.50;;;20.30;43.40;;;;;;5059169;28;20218;-63
2022/11/17 13:14:13;;;;;;;0.70;0.60;;;20.30;43.50;;;;;;5064137;28;20450;-63
2022/11/17 13:16:49;;;;;;;0.63;0.60;;;20.30;43.50;;;;;;5062436;28;20375;-62
2022/11/17 13:19:33;;;;;;;0.70;0.60;;;20.30;43.50;;;;;;5061305;28;20834;-63
2022/11/17 13:22:01;;;;;;;0.67;0.60;;;20.30;43.40;;;;;;5063287;28;20509;-63
2022/11/17 13:24:32;;;;;;;0.70;0.70;;;20.30;43.50;;;;;;5060145;28;20462;-63
2022/11/17 13:27:00;;;;;;;0.67;0.50;;;20.30;43.40;;;;;;5060189;28;20444;-63
2022/11/17 13:29:26;;;;;;;0.60;0.50;;;20.30;43.50;;;;;;5061680;28;21257;-63